sensor_id;sensor_type;location;lat;lon;timestamp;P1;durP1;ratioP1;P2;durP2;ratioP2
11731;SDS011;5922;53.734;10.258;2023-05-17T00:01:40;14.47;;;4.17;;
11731;SDS011;5922;53.734;10.258;2023-05-17T00:04:09;16.83;;;4.57;;
11731;SDS011;5922;53.734;10.258;2023-05-17T00:06:36;17.87;;;4.27;;
11731;SDS011;5922;53.734;10.258;2023-05-17T00:09:03;13.00;;;4.33;;
11731;SDS011;5922;53.734;10.258;2023-05-17T00:11:31;16.83;;;4.00;;
11731;SDS011;5922;53.734;10.258;2023-05-17T00:13:58;17.07;;;3.67;;
11731;SDS011;5922;53.734;10.258;2023-05-17T00:16:26;18.23;;;4.03;;
11731;SDS011;5922;53.734;10.258;2023-05-17T00:18:53;17.53;;;4.13;;
11731;SDS011;5922;53.734;10.258;2023-05-17T00:21:22;11.50;;;3.67;;
11731;SDS011;5922;53.734;10.258;2023-05-17T00:23:49;16.10;;;4.33;;
11731;SDS011;5922;53.734;10.258;2023-05-17T00:26:17;13.50;;;4.00;;
11731;SDS011;5922;53.734;10.258;2023-05-17T00:28:44;19.10;;;4.77;;
11731;SDS011;5922;53.734;10.258;2023-05-17T00:31:11;12.60;;;3.90;;
11731;SDS011;5922;53.734;10.258;2023-05-17T00:33:38;13.80;;;4.20;;
11731;SDS011;5922;53.734;10.258;2023-05-17T00:36:06;14.90;;;4.67;;
11731;SDS011;5922;53.734;10.258;2023-05-17T00:38:34;16.10;;;3.93;;
11731;SDS011;5922;53.734;10.258;2023-05-17T00:41:02;13.87;;;4.23;;
11731;SDS011;5922;53.734;10.258;2023-05-17T00:43:29;14.70;;;3.93;;
11731;SDS011;5922;53.734;10.258;2023-05-17T00:45:56;16.27;;;4.17;;
11731;SDS011;5922;53.734;10.258;2023-05-17T00:48:24;16.27;;;3.83;;
11731;SDS011;5922;53.734;10.258;2023-05-17T00:50:51;17.50;;;4.00;;
11731;SDS011;5922;53.734;10.258;2023-05-17T00:53:18;14.73;;;3.40;;
11731;SDS011;5922;53.734;10.258;2023-05-17T00:55:47;14.67;;;4.03;;
11731;SDS011;5922;53.734;10.258;2023-05-17T00:58:15;13.93;;;3.83;;
11731;SDS011;5922;53.734;10.258;2023-05-17T01:00:42;18.23;;;4.23;;
11731;SDS011;5922;53.734;10.258;2023-05-17T01:03:10;18.03;;;4.30;;
11731;SDS011;5922;53.734;10.258;2023-05-17T01:05:37;14.27;;;3.67;;
11731;SDS011;5922;53.734;10.258;2023-05-17T01:08:04;13.00;;;4.00;;
11731;SDS011;5922;53.734;10.258;2023-05-17T01:10:34;11.87;;;3.80;;
11731;SDS011;5922;53.734;10.258;2023-05-17T01:13:05;15.97;;;4.23;;
11731;SDS011;5922;53.734;10.258;2023-05-17T01:15:35;13.87;;;3.70;;
11731;SDS011;5922;53.734;10.258;2023-05-17T01:18:05;11.60;;;3.30;;
11731;SDS011;5922;53.734;10.258;2023-05-17T01:20:36;14.53;;;3.73;;
11731;SDS011;5922;53.734;10.258;2023-05-17T01:23:13;14.10;;;4.07;;
11731;SDS011;5922;53.734;10.258;2023-05-17T01:25:49;16.27;;;3.97;;
11731;SDS011;5922;53.734;10.258;2023-05-17T01:28:19;11.20;;;3.60;;
11731;SDS011;5922;53.734;10.258;2023-05-17T01:30:47;16.43;;;4.50;;
11731;SDS011;5922;53.734;10.258;2023-05-17T01:33:16;17.93;;;4.00;;
11731;SDS011;5922;53.734;10.258;2023-05-17T01:35:44;13.23;;;4.17;;
11731;SDS011;5922;53.734;10.258;2023-05-17T01:38:11;16.57;;;4.33;;
11731;SDS011;5922;53.734;10.258;2023-05-17T01:40:41;14.90;;;3.63;;
11731;SDS011;5922;53.734;10.258;2023-05-17T01:43:12;15.77;;;3.90;;
11731;SDS011;5922;53.734;10.258;2023-05-17T01:45:46;15.97;;;3.87;;
11731;SDS011;5922;53.734;10.258;2023-05-17T01:48:17;15.10;;;3.67;;
11731;SDS011;5922;53.734;10.258;2023-05-17T01:50:46;13.07;;;3.30;;
11731;SDS011;5922;53.734;10.258;2023-05-17T01:53:16;12.73;;;3.40;;
11731;SDS011;5922;53.734;10.258;2023-05-17T01:55:46;11.87;;;3.47;;
11731;SDS011;5922;53.734;10.258;2023-05-17T01:58:15;12.83;;;4.17;;
11731;SDS011;5922;53.734;10.258;2023-05-17T02:00:48;13.77;;;3.60;;
11731;SDS011;5922;53.734;10.258;2023-05-17T02:03:15;14.20;;;3.13;;
11731;SDS011;5922;53.734;10.258;2023-05-17T02:05:43;14.83;;;3.70;;
11731;SDS011;5922;53.734;10.258;2023-05-17T02:08:10;9.40;;;2.87;;
11731;SDS011;5922;53.734;10.258;2023-05-17T02:10:38;10.90;;;3.03;;
11731;SDS011;5922;53.734;10.258;2023-05-17T02:13:05;13.90;;;3.30;;
11731;SDS011;5922;53.734;10.258;2023-05-17T02:15:32;15.13;;;3.37;;
11731;SDS011;5922;53.734;10.258;2023-05-17T02:18:01;12.93;;;3.40;;
11731;SDS011;5922;53.734;10.258;2023-05-17T02:20:28;11.17;;;3.60;;
11731;SDS011;5922;53.734;10.258;2023-05-17T02:22:56;14.90;;;3.60;;
11731;SDS011;5922;53.734;10.258;2023-05-17T02:25:23;12.53;;;3.33;;
11731;SDS011;5922;53.734;10.258;2023-05-17T02:27:50;10.57;;;3.23;;
11731;SDS011;5922;53.734;10.258;2023-05-17T02:30:18;11.43;;;3.13;;
11731;SDS011;5922;53.734;10.258;2023-05-17T02:32:46;12.83;;;3.27;;
11731;SDS011;5922;53.734;10.258;2023-05-17T02:35:15;11.97;;;3.30;;
11731;SDS011;5922;53.734;10.258;2023-05-17T02:37:42;15.07;;;3.20;;
11731;SDS011;5922;53.734;10.258;2023-05-17T02:40:09;19.10;;;3.23;;
11731;SDS011;5922;53.734;10.258;2023-05-17T02:42:37;10.23;;;2.87;;
11731;SDS011;5922;53.734;10.258;2023-05-17T02:45:04;13.53;;;2.83;;
11731;SDS011;5922;53.734;10.258;2023-05-17T02:47:31;13.47;;;3.33;;
11731;SDS011;5922;53.734;10.258;2023-05-17T02:49:59;9.60;;;2.77;;
11731;SDS011;5922;53.734;10.258;2023-05-17T02:52:27;11.83;;;2.90;;
11731;SDS011;5922;53.734;10.258;2023-05-17T02:54:55;9.83;;;3.13;;
11731;SDS011;5922;53.734;10.258;2023-05-17T02:57:22;10.67;;;3.30;;
11731;SDS011;5922;53.734;10.258;2023-05-17T02:59:49;11.27;;;2.67;;
11731;SDS011;5922;53.734;10.258;2023-05-17T03:02:16;12.53;;;3.00;;
11731;SDS011;5922;53.734;10.258;2023-05-17T03:04:44;8.83;;;2.70;;
11731;SDS011;5922;53.734;10.258;2023-05-17T03:07:11;13.47;;;2.97;;
11731;SDS011;5922;53.734;10.258;2023-05-17T03:09:39;10.73;;;2.83;;
11731;SDS011;5922;53.734;10.258;2023-05-17T03:12:07;15.13;;;2.83;;
11731;SDS011;5922;53.734;10.258;2023-05-17T03:14:35;14.30;;;2.40;;
11731;SDS011;5922;53.734;10.258;2023-05-17T03:17:02;9.53;;;2.77;;
11731;SDS011;5922;53.734;10.258;2023-05-17T03:19:29;9.70;;;2.33;;
11731;SDS011;5922;53.734;10.258;2023-05-17T03:21:57;18.20;;;3.20;;
11731;SDS011;5922;53.734;10.258;2023-05-17T03:24:24;14.97;;;2.97;;
11731;SDS011;5922;53.734;10.258;2023-05-17T03:26:53;13.17;;;2.60;;
11731;SDS011;5922;53.734;10.258;2023-05-17T03:29:20;9.97;;;2.70;;
11731;SDS011;5922;53.734;10.258;2023-05-17T03:31:47;11.50;;;3.07;;
11731;SDS011;5922;53.734;10.258;2023-05-17T03:34:15;8.30;;;2.80;;
11731;SDS011;5922;53.734;10.258;2023-05-17T03:36:42;9.10;;;2.60;;
11731;SDS011;5922;53.734;10.258;2023-05-17T03:39:09;10.63;;;2.57;;
11731;SDS011;5922;53.734;10.258;2023-05-17T03:41:37;14.30;;;2.60;;
11731;SDS011;5922;53.734;10.258;2023-05-17T03:44:07;13.33;;;2.73;;
11731;SDS011;5922;53.734;10.258;2023-05-17T03:46:34;15.90;;;2.83;;
11731;SDS011;5922;53.734;10.258;2023-05-17T03:49:02;12.97;;;2.47;;
11731;SDS011;5922;53.734;10.258;2023-05-17T03:51:29;14.00;;;3.33;;
11731;SDS011;5922;53.734;10.258;2023-05-17T03:53:57;16.60;;;3.07;;
11731;SDS011;5922;53.734;10.258;2023-05-17T03:56:24;16.53;;;3.17;;
11731;SDS011;5922;53.734;10.258;2023-05-17T03:58:51;11.13;;;3.17;;
11731;SDS011;5922;53.734;10.258;2023-05-17T04:01:20;8.73;;;2.23;;
11731;SDS011;5922;53.734;10.258;2023-05-17T04:03:47;12.33;;;2.80;;
11731;SDS011;5922;53.734;10.258;2023-05-17T04:06:15;9.80;;;2.67;;
11731;SDS011;5922;53.734;10.258;2023-05-17T04:08:42;13.03;;;2.60;;
11731;SDS011;5922;53.734;10.258;2023-05-17T04:11:09;12.23;;;2.90;;
11731;SDS011;5922;53.734;10.258;2023-05-17T04:13:37;12.50;;;2.80;;
11731;SDS011;5922;53.734;10.258;2023-05-17T04:16:05;8.50;;;2.80;;
11731;SDS011;5922;53.734;10.258;2023-05-17T04:18:34;8.77;;;2.83;;
11731;SDS011;5922;53.734;10.258;2023-05-17T04:21:02;11.83;;;2.50;;
11731;SDS011;5922;53.734;10.258;2023-05-17T04:23:30;7.57;;;2.20;;
11731;SDS011;5922;53.734;10.258;2023-05-17T04:25:57;11.43;;;2.93;;
11731;SDS011;5922;53.734;10.258;2023-05-17T04:28:24;11.90;;;3.07;;
11731;SDS011;5922;53.734;10.258;2023-05-17T04:30:52;10.00;;;2.90;;
11731;SDS011;5922;53.734;10.258;2023-05-17T04:33:19;11.90;;;3.07;;
11731;SDS011;5922;53.734;10.258;2023-05-17T04:35:48;11.10;;;2.97;;
11731;SDS011;5922;53.734;10.258;2023-05-17T04:38:16;10.03;;;2.60;;
11731;SDS011;5922;53.734;10.258;2023-05-17T04:40:43;9.30;;;2.60;;
11731;SDS011;5922;53.734;10.258;2023-05-17T04:43:10;14.33;;;3.03;;
11731;SDS011;5922;53.734;10.258;2023-05-17T04:45:38;17.23;;;3.27;;
11731;SDS011;5922;53.734;10.258;2023-05-17T04:48:05;12.17;;;3.30;;
11731;SDS011;5922;53.734;10.258;2023-05-17T04:50:32;10.13;;;2.60;;
11731;SDS011;5922;53.734;10.258;2023-05-17T04:53:01;11.87;;;2.77;;
11731;SDS011;5922;53.734;10.258;2023-05-17T04:55:29;13.13;;;2.83;;
11731;SDS011;5922;53.734;10.258;2023-05-17T04:57:56;9.80;;;2.73;;
11731;SDS011;5922;53.734;10.258;2023-05-17T05:00:23;12.10;;;3.47;;
11731;SDS011;5922;53.734;10.258;2023-05-17T05:02:51;8.53;;;2.80;;
11731;SDS011;5922;53.734;10.258;2023-05-17T05:05:18;9.90;;;2.50;;
11731;SDS011;5922;53.734;10.258;2023-05-17T05:07:46;12.73;;;2.70;;
11731;SDS011;5922;53.734;10.258;2023-05-17T05:10:28;15.63;;;2.77;;
11731;SDS011;5922;53.734;10.258;2023-05-17T05:12:59;9.10;;;2.80;;
11731;SDS011;5922;53.734;10.258;2023-05-17T05:15:26;12.63;;;3.10;;
11731;SDS011;5922;53.734;10.258;2023-05-17T05:17:53;14.63;;;2.97;;
11731;SDS011;5922;53.734;10.258;2023-05-17T05:20:21;12.57;;;2.60;;
11731;SDS011;5922;53.734;10.258;2023-05-17T05:22:48;9.87;;;2.80;;
11731;SDS011;5922;53.734;10.258;2023-05-17T05:25:18;8.30;;;2.80;;
11731;SDS011;5922;53.734;10.258;2023-05-17T05:27:46;15.30;;;3.10;;
11731;SDS011;5922;53.734;10.258;2023-05-17T05:30:14;9.20;;;2.67;;
11731;SDS011;5922;53.734;10.258;2023-05-17T05:32:46;12.20;;;2.80;;
11731;SDS011;5922;53.734;10.258;2023-05-17T05:35:32;9.87;;;2.40;;
11731;SDS011;5922;53.734;10.258;2023-05-17T05:38:11;12.23;;;2.80;;
11731;SDS011;5922;53.734;10.258;2023-05-17T05:40:38;13.83;;;2.97;;
11731;SDS011;5922;53.734;10.258;2023-05-17T05:43:07;12.80;;;3.23;;
11731;SDS011;5922;53.734;10.258;2023-05-17T05:45:35;15.63;;;3.07;;
11731;SDS011;5922;53.734;10.258;2023-05-17T05:48:05;11.43;;;2.70;;
11731;SDS011;5922;53.734;10.258;2023-05-17T05:50:33;12.70;;;2.90;;
11731;SDS011;5922;53.734;10.258;2023-05-17T05:53:03;12.53;;;3.27;;
11731;SDS011;5922;53.734;10.258;2023-05-17T05:55:31;14.83;;;2.90;;
11731;SDS011;5922;53.734;10.258;2023-05-17T05:57:58;12.60;;;3.53;;
11731;SDS011;5922;53.734;10.258;2023-05-17T06:00:30;9.70;;;2.43;;
11731;SDS011;5922;53.734;10.258;2023-05-17T06:02:57;12.57;;;3.30;;
11731;SDS011;5922;53.734;10.258;2023-05-17T06:05:25;14.10;;;3.10;;
11731;SDS011;5922;53.734;10.258;2023-05-17T06:07:55;11.23;;;3.10;;
11731;SDS011;5922;53.734;10.258;2023-05-17T06:10:22;12.67;;;3.10;;
11731;SDS011;5922;53.734;10.258;2023-05-17T06:12:50;10.00;;;2.77;;
11731;SDS011;5922;53.734;10.258;2023-05-17T06:15:17;10.43;;;2.67;;
11731;SDS011;5922;53.734;10.258;2023-05-17T06:17:48;12.07;;;2.90;;
11731;SDS011;5922;53.734;10.258;2023-05-17T06:20:15;12.00;;;2.67;;
11731;SDS011;5922;53.734;10.258;2023-05-17T06:22:45;10.97;;;2.73;;
11731;SDS011;5922;53.734;10.258;2023-05-17T06:25:13;12.03;;;2.53;;
11731;SDS011;5922;53.734;10.258;2023-05-17T06:30:23;10.63;;;2.80;;
11731;SDS011;5922;53.734;10.258;2023-05-17T06:33:00;7.63;;;2.20;;
11731;SDS011;5922;53.734;10.258;2023-05-17T06:35:28;6.83;;;2.60;;
11731;SDS011;5922;53.734;10.258;2023-05-17T06:37:56;12.93;;;2.40;;
11731;SDS011;5922;53.734;10.258;2023-05-17T06:40:23;9.63;;;2.60;;
11731;SDS011;5922;53.734;10.258;2023-05-17T06:42:50;15.57;;;2.80;;
11731;SDS011;5922;53.734;10.258;2023-05-17T06:45:18;9.00;;;2.57;;
11731;SDS011;5922;53.734;10.258;2023-05-17T06:47:46;11.10;;;2.43;;
11731;SDS011;5922;53.734;10.258;2023-05-17T06:50:15;10.73;;;2.70;;
11731;SDS011;5922;53.734;10.258;2023-05-17T06:52:42;7.73;;;2.50;;
11731;SDS011;5922;53.734;10.258;2023-05-17T06:55:10;11.07;;;2.60;;
11731;SDS011;5922;53.734;10.258;2023-05-17T06:57:37;8.57;;;2.53;;
11731;SDS011;5922;53.734;10.258;2023-05-17T07:00:05;10.57;;;2.70;;
11731;SDS011;5922;53.734;10.258;2023-05-17T07:02:35;6.57;;;2.40;;
11731;SDS011;5922;53.734;10.258;2023-05-17T07:05:03;6.53;;;2.37;;
11731;SDS011;5922;53.734;10.258;2023-05-17T07:07:33;14.23;;;3.33;;
11731;SDS011;5922;53.734;10.258;2023-05-17T07:10:00;8.80;;;2.70;;
11731;SDS011;5922;53.734;10.258;2023-05-17T07:12:27;3.73;;;2.07;;
11731;SDS011;5922;53.734;10.258;2023-05-17T07:14:55;10.60;;;2.90;;
11731;SDS011;5922;53.734;10.258;2023-05-17T07:17:22;8.67;;;2.80;;
11731;SDS011;5922;53.734;10.258;2023-05-17T07:19:55;9.30;;;2.40;;
11731;SDS011;5922;53.734;10.258;2023-05-17T07:22:26;7.00;;;2.20;;
11731;SDS011;5922;53.734;10.258;2023-05-17T07:24:56;8.40;;;2.30;;
11731;SDS011;5922;53.734;10.258;2023-05-17T07:27:23;10.20;;;2.60;;
11731;SDS011;5922;53.734;10.258;2023-05-17T07:29:50;6.67;;;2.50;;
11731;SDS011;5922;53.734;10.258;2023-05-17T07:32:18;8.30;;;2.33;;
11731;SDS011;5922;53.734;10.258;2023-05-17T07:34:45;10.27;;;2.53;;
11731;SDS011;5922;53.734;10.258;2023-05-17T07:37:12;7.70;;;2.57;;
11731;SDS011;5922;53.734;10.258;2023-05-17T07:39:40;6.57;;;2.77;;
11731;SDS011;5922;53.734;10.258;2023-05-17T07:42:08;8.83;;;2.33;;
11731;SDS011;5922;53.734;10.258;2023-05-17T07:44:38;8.67;;;2.70;;
11731;SDS011;5922;53.734;10.258;2023-05-17T07:47:05;7.57;;;2.73;;
11731;SDS011;5922;53.734;10.258;2023-05-17T07:49:33;8.87;;;2.77;;
11731;SDS011;5922;53.734;10.258;2023-05-17T07:52:00;8.87;;;2.50;;
11731;SDS011;5922;53.734;10.258;2023-05-17T07:54:27;6.60;;;1.90;;
11731;SDS011;5922;53.734;10.258;2023-05-17T07:57:06;9.73;;;2.80;;
11731;SDS011;5922;53.734;10.258;2023-05-17T07:59:35;7.53;;;2.10;;
11731;SDS011;5922;53.734;10.258;2023-05-17T08:02:02;5.93;;;2.33;;
11731;SDS011;5922;53.734;10.258;2023-05-17T08:04:29;11.53;;;2.83;;
11731;SDS011;5922;53.734;10.258;2023-05-17T08:06:56;11.30;;;2.43;;
11731;SDS011;5922;53.734;10.258;2023-05-17T08:09:24;7.47;;;2.57;;
11731;SDS011;5922;53.734;10.258;2023-05-17T08:11:52;8.70;;;2.63;;
11731;SDS011;5922;53.734;10.258;2023-05-17T08:14:22;7.80;;;2.47;;
11731;SDS011;5922;53.734;10.258;2023-05-17T08:16:52;8.93;;;2.73;;
11731;SDS011;5922;53.734;10.258;2023-05-17T08:19:19;10.77;;;2.57;;
11731;SDS011;5922;53.734;10.258;2023-05-17T08:21:46;7.50;;;2.40;;
11731;SDS011;5922;53.734;10.258;2023-05-17T08:24:14;7.57;;;2.43;;
11731;SDS011;5922;53.734;10.258;2023-05-17T08:26:41;7.97;;;2.30;;
11731;SDS011;5922;53.734;10.258;2023-05-17T08:29:08;7.90;;;2.47;;
11731;SDS011;5922;53.734;10.258;2023-05-17T08:31:36;7.90;;;2.23;;
11731;SDS011;5922;53.734;10.258;2023-05-17T08:34:07;9.47;;;2.40;;
11731;SDS011;5922;53.734;10.258;2023-05-17T08:36:36;7.97;;;2.70;;
11731;SDS011;5922;53.734;10.258;2023-05-17T08:39:03;7.63;;;2.40;;
11731;SDS011;5922;53.734;10.258;2023-05-17T08:41:32;6.97;;;2.77;;
11731;SDS011;5922;53.734;10.258;2023-05-17T08:43:59;10.03;;;2.47;;
11731;SDS011;5922;53.734;10.258;2023-05-17T08:46:28;8.10;;;2.47;;
11731;SDS011;5922;53.734;10.258;2023-05-17T08:48:55;5.57;;;2.00;;
11731;SDS011;5922;53.734;10.258;2023-05-17T08:51:25;10.87;;;2.60;;
11731;SDS011;5922;53.734;10.258;2023-05-17T08:53:52;7.90;;;2.50;;
11731;SDS011;5922;53.734;10.258;2023-05-17T08:56:20;10.87;;;2.60;;
11731;SDS011;5922;53.734;10.258;2023-05-17T08:58:53;10.43;;;2.63;;
11731;SDS011;5922;53.734;10.258;2023-05-17T09:01:21;13.87;;;2.70;;
11731;SDS011;5922;53.734;10.258;2023-05-17T09:03:49;7.77;;;2.57;;
11731;SDS011;5922;53.734;10.258;2023-05-17T09:06:18;12.67;;;3.33;;
11731;SDS011;5922;53.734;10.258;2023-05-17T09:08:48;10.10;;;2.53;;
11731;SDS011;5922;53.734;10.258;2023-05-17T09:11:22;9.07;;;2.70;;
11731;SDS011;5922;53.734;10.258;2023-05-17T09:13:50;9.23;;;2.77;;
11731;SDS011;5922;53.734;10.258;2023-05-17T09:16:18;11.63;;;2.60;;
11731;SDS011;5922;53.734;10.258;2023-05-17T09:18:51;16.07;;;2.80;;
11731;SDS011;5922;53.734;10.258;2023-05-17T09:21:19;10.77;;;2.30;;
11731;SDS011;5922;53.734;10.258;2023-05-17T09:23:48;8.77;;;2.23;;
11731;SDS011;5922;53.734;10.258;2023-05-17T09:26:20;9.03;;;2.40;;
11731;SDS011;5922;53.734;10.258;2023-05-17T09:28:47;11.53;;;2.30;;
11731;SDS011;5922;53.734;10.258;2023-05-17T09:31:15;6.13;;;2.27;;
11731;SDS011;5922;53.734;10.258;2023-05-17T09:33:43;6.97;;;2.43;;
11731;SDS011;5922;53.734;10.258;2023-05-17T09:36:16;7.30;;;2.47;;
11731;SDS011;5922;53.734;10.258;2023-05-17T09:38:56;11.17;;;2.67;;
11731;SDS011;5922;53.734;10.258;2023-05-17T09:41:31;8.27;;;2.37;;
11731;SDS011;5922;53.734;10.258;2023-05-17T09:43:59;10.70;;;3.00;;
11731;SDS011;5922;53.734;10.258;2023-05-17T09:46:27;10.47;;;2.57;;
11731;SDS011;5922;53.734;10.258;2023-05-17T09:48:54;9.47;;;2.70;;
11731;SDS011;5922;53.734;10.258;2023-05-17T09:51:31;12.53;;;2.37;;
11731;SDS011;5922;53.734;10.258;2023-05-17T09:54:06;7.57;;;2.20;;
11731;SDS011;5922;53.734;10.258;2023-05-17T09:56:39;8.63;;;2.73;;
11731;SDS011;5922;53.734;10.258;2023-05-17T09:59:11;5.70;;;2.27;;
11731;SDS011;5922;53.734;10.258;2023-05-17T10:01:39;8.00;;;2.60;;
11731;SDS011;5922;53.734;10.258;2023-05-17T10:04:07;7.87;;;2.30;;
11731;SDS011;5922;53.734;10.258;2023-05-17T10:06:35;7.93;;;2.27;;
11731;SDS011;5922;53.734;10.258;2023-05-17T10:09:07;6.13;;;2.30;;
11731;SDS011;5922;53.734;10.258;2023-05-17T10:11:36;3.97;;;2.10;;
11731;SDS011;5922;53.734;10.258;2023-05-17T10:14:09;8.60;;;2.53;;
11731;SDS011;5922;53.734;10.258;2023-05-17T10:16:37;8.77;;;2.33;;
11731;SDS011;5922;53.734;10.258;2023-05-17T10:19:04;7.10;;;2.50;;
11731;SDS011;5922;53.734;10.258;2023-05-17T10:21:34;6.13;;;2.33;;
11731;SDS011;5922;53.734;10.258;2023-05-17T10:24:03;6.10;;;2.00;;
11731;SDS011;5922;53.734;10.258;2023-05-17T10:26:35;10.07;;;2.20;;
11731;SDS011;5922;53.734;10.258;2023-05-17T10:29:02;9.73;;;2.40;;
11731;SDS011;5922;53.734;10.258;2023-05-17T10:31:31;7.10;;;2.23;;
11731;SDS011;5922;53.734;10.258;2023-05-17T10:34:00;8.63;;;2.77;;
11731;SDS011;5922;53.734;10.258;2023-05-17T10:36:28;9.60;;;2.33;;
11731;SDS011;5922;53.734;10.258;2023-05-17T10:38:59;5.60;;;2.70;;
11731;SDS011;5922;53.734;10.258;2023-05-17T10:41:28;7.10;;;2.30;;
11731;SDS011;5922;53.734;10.258;2023-05-17T10:43:57;9.47;;;2.57;;
11731;SDS011;5922;53.734;10.258;2023-05-17T10:46:25;11.20;;;3.10;;
11731;SDS011;5922;53.734;10.258;2023-05-17T10:48:56;13.67;;;2.93;;
11731;SDS011;5922;53.734;10.258;2023-05-17T10:51:24;8.37;;;2.83;;
11731;SDS011;5922;53.734;10.258;2023-05-17T10:54:06;8.43;;;2.70;;
11731;SDS011;5922;53.734;10.258;2023-05-17T10:56:34;9.33;;;2.67;;
11731;SDS011;5922;53.734;10.258;2023-05-17T10:59:14;9.13;;;2.67;;
11731;SDS011;5922;53.734;10.258;2023-05-17T11:01:51;5.90;;;2.37;;
11731;SDS011;5922;53.734;10.258;2023-05-17T11:04:19;5.00;;;2.00;;
11731;SDS011;5922;53.734;10.258;2023-05-17T11:06:46;5.50;;;1.73;;
11731;SDS011;5922;53.734;10.258;2023-05-17T11:09:14;4.63;;;2.23;;
11731;SDS011;5922;53.734;10.258;2023-05-17T11:14:25;6.63;;;2.03;;
11731;SDS011;5922;53.734;10.258;2023-05-17T11:16:53;7.17;;;2.00;;
11731;SDS011;5922;53.734;10.258;2023-05-17T11:19:22;4.47;;;1.93;;
11731;SDS011;5922;53.734;10.258;2023-05-17T11:21:52;4.20;;;2.07;;
11731;SDS011;5922;53.734;10.258;2023-05-17T11:24:24;4.77;;;2.10;;
11731;SDS011;5922;53.734;10.258;2023-05-17T11:26:52;3.67;;;1.87;;
11731;SDS011;5922;53.734;10.258;2023-05-17T11:29:21;9.17;;;2.00;;
11731;SDS011;5922;53.734;10.258;2023-05-17T11:31:56;6.33;;;1.80;;
11731;SDS011;5922;53.734;10.258;2023-05-17T11:34:23;3.40;;;1.80;;
11731;SDS011;5922;53.734;10.258;2023-05-17T11:36:52;5.57;;;2.20;;
11731;SDS011;5922;53.734;10.258;2023-05-17T11:39:20;5.97;;;2.03;;
11731;SDS011;5922;53.734;10.258;2023-05-17T11:41:48;3.23;;;1.87;;
11731;SDS011;5922;53.734;10.258;2023-05-17T11:44:27;5.40;;;2.10;;
11731;SDS011;5922;53.734;10.258;2023-05-17T11:47:03;7.03;;;2.20;;
11731;SDS011;5922;53.734;10.258;2023-05-17T11:49:35;7.17;;;1.90;;
11731;SDS011;5922;53.734;10.258;2023-05-17T11:52:03;4.93;;;1.90;;
11731;SDS011;5922;53.734;10.258;2023-05-17T11:54:30;6.63;;;2.07;;
11731;SDS011;5922;53.734;10.258;2023-05-17T11:56:58;6.60;;;1.97;;
11731;SDS011;5922;53.734;10.258;2023-05-17T11:59:26;4.67;;;2.03;;
11731;SDS011;5922;53.734;10.258;2023-05-17T12:01:54;6.77;;;1.93;;
11731;SDS011;5922;53.734;10.258;2023-05-17T12:04:23;7.97;;;2.00;;
11731;SDS011;5922;53.734;10.258;2023-05-17T12:06:50;6.37;;;2.13;;
11731;SDS011;5922;53.734;10.258;2023-05-17T12:09:18;7.27;;;2.33;;
11731;SDS011;5922;53.734;10.258;2023-05-17T12:11:46;6.27;;;2.20;;
11731;SDS011;5922;53.734;10.258;2023-05-17T12:14:16;3.87;;;2.10;;
11731;SDS011;5922;53.734;10.258;2023-05-17T12:16:44;6.07;;;1.90;;
11731;SDS011;5922;53.734;10.258;2023-05-17T12:19:17;6.63;;;1.90;;
11731;SDS011;5922;53.734;10.258;2023-05-17T12:21:46;6.47;;;1.80;;
11731;SDS011;5922;53.734;10.258;2023-05-17T12:24:13;10.23;;;2.13;;
11731;SDS011;5922;53.734;10.258;2023-05-17T12:26:41;10.07;;;2.40;;
11731;SDS011;5922;53.734;10.258;2023-05-17T12:29:12;4.77;;;2.27;;
11731;SDS011;5922;53.734;10.258;2023-05-17T12:31:44;7.30;;;2.10;;
11731;SDS011;5922;53.734;10.258;2023-05-17T12:34:14;7.87;;;2.23;;
11731;SDS011;5922;53.734;10.258;2023-05-17T12:36:42;7.07;;;2.10;;
11731;SDS011;5922;53.734;10.258;2023-05-17T12:39:11;7.20;;;2.20;;
11731;SDS011;5922;53.734;10.258;2023-05-17T12:41:39;5.43;;;2.10;;
11731;SDS011;5922;53.734;10.258;2023-05-17T12:44:09;7.20;;;2.00;;
11731;SDS011;5922;53.734;10.258;2023-05-17T12:46:39;5.53;;;2.23;;
11731;SDS011;5922;53.734;10.258;2023-05-17T12:49:07;5.07;;;1.60;;
11731;SDS011;5922;53.734;10.258;2023-05-17T12:51:41;5.43;;;1.97;;
11731;SDS011;5922;53.734;10.258;2023-05-17T12:54:13;5.50;;;2.00;;
11731;SDS011;5922;53.734;10.258;2023-05-17T12:56:45;8.57;;;2.33;;
11731;SDS011;5922;53.734;10.258;2023-05-17T12:59:16;5.80;;;2.03;;
11731;SDS011;5922;53.734;10.258;2023-05-17T13:01:45;6.20;;;1.97;;
11731;SDS011;5922;53.734;10.258;2023-05-17T13:04:13;6.07;;;2.00;;
11731;SDS011;5922;53.734;10.258;2023-05-17T13:06:44;6.30;;;1.93;;
11731;SDS011;5922;53.734;10.258;2023-05-17T13:09:13;6.83;;;2.30;;
11731;SDS011;5922;53.734;10.258;2023-05-17T13:11:40;6.43;;;2.00;;
11731;SDS011;5922;53.734;10.258;2023-05-17T13:14:08;7.87;;;1.97;;
11731;SDS011;5922;53.734;10.258;2023-05-17T13:16:36;4.40;;;1.90;;
11731;SDS011;5922;53.734;10.258;2023-05-17T13:19:10;5.97;;;1.93;;
11731;SDS011;5922;53.734;10.258;2023-05-17T13:21:37;8.37;;;2.40;;
11731;SDS011;5922;53.734;10.258;2023-05-17T13:24:15;7.77;;;2.27;;
11731;SDS011;5922;53.734;10.258;2023-05-17T13:26:42;10.97;;;2.47;;
11731;SDS011;5922;53.734;10.258;2023-05-17T13:29:22;4.50;;;1.80;;
11731;SDS011;5922;53.734;10.258;2023-05-17T13:31:49;5.77;;;1.90;;
11731;SDS011;5922;53.734;10.258;2023-05-17T13:34:17;7.57;;;1.80;;
11731;SDS011;5922;53.734;10.258;2023-05-17T13:36:56;6.00;;;1.87;;
11731;SDS011;5922;53.734;10.258;2023-05-17T13:39:24;4.17;;;1.83;;
11731;SDS011;5922;53.734;10.258;2023-05-17T13:41:51;6.13;;;2.17;;
11731;SDS011;5922;53.734;10.258;2023-05-17T13:44:19;4.73;;;1.60;;
11731;SDS011;5922;53.734;10.258;2023-05-17T13:46:46;5.27;;;1.87;;
11731;SDS011;5922;53.734;10.258;2023-05-17T13:49:16;4.83;;;1.77;;
11731;SDS011;5922;53.734;10.258;2023-05-17T13:51:44;5.90;;;1.83;;
11731;SDS011;5922;53.734;10.258;2023-05-17T13:54:12;4.90;;;1.87;;
11731;SDS011;5922;53.734;10.258;2023-05-17T13:56:40;3.63;;;1.50;;
11731;SDS011;5922;53.734;10.258;2023-05-17T13:59:08;6.13;;;1.60;;
11731;SDS011;5922;53.734;10.258;2023-05-17T14:01:35;5.07;;;1.53;;
11731;SDS011;5922;53.734;10.258;2023-05-17T14:04:05;5.53;;;1.60;;
11731;SDS011;5922;53.734;10.258;2023-05-17T14:06:33;7.30;;;1.93;;
11731;SDS011;5922;53.734;10.258;2023-05-17T14:09:00;4.47;;;1.93;;
11731;SDS011;5922;53.734;10.258;2023-05-17T14:11:28;8.37;;;2.10;;
11731;SDS011;5922;53.734;10.258;2023-05-17T14:13:56;6.90;;;2.00;;
11731;SDS011;5922;53.734;10.258;2023-05-17T14:16:27;7.80;;;2.07;;
11731;SDS011;5922;53.734;10.258;2023-05-17T14:18:55;6.90;;;2.10;;
11731;SDS011;5922;53.734;10.258;2023-05-17T14:21:22;5.60;;;1.83;;
11731;SDS011;5922;53.734;10.258;2023-05-17T14:23:49;11.03;;;2.53;;
11731;SDS011;5922;53.734;10.258;2023-05-17T14:26:16;6.20;;;2.10;;
11731;SDS011;5922;53.734;10.258;2023-05-17T14:28:44;5.77;;;1.97;;
11731;SDS011;5922;53.734;10.258;2023-05-17T14:31:12;7.47;;;2.37;;
11731;SDS011;5922;53.734;10.258;2023-05-17T14:33:40;8.30;;;2.30;;
11731;SDS011;5922;53.734;10.258;2023-05-17T14:36:07;6.80;;;2.23;;
11731;SDS011;5922;53.734;10.258;2023-05-17T14:38:35;8.93;;;2.47;;
11731;SDS011;5922;53.734;10.258;2023-05-17T14:41:03;6.17;;;2.40;;
11731;SDS011;5922;53.734;10.258;2023-05-17T14:43:31;6.47;;;2.27;;
11731;SDS011;5922;53.734;10.258;2023-05-17T14:45:58;6.37;;;1.83;;
11731;SDS011;5922;53.734;10.258;2023-05-17T14:48:30;7.60;;;1.80;;
11731;SDS011;5922;53.734;10.258;2023-05-17T14:51:02;7.27;;;2.00;;
11731;SDS011;5922;53.734;10.258;2023-05-17T14:53:29;8.40;;;1.90;;
11731;SDS011;5922;53.734;10.258;2023-05-17T14:56:04;4.70;;;1.80;;